CA-0064 weather

CLOSED Buckingham Airport
Quebec, Canada

Public forecast

Using degrees Celsius for public forecast. Weather courtesy of forecast.io.

METAR (pilot weather report)

Report is more than 2 hours old.

Closest report is Ottawa / Gatineau Airport, 9.6 nm (17.8 km) SW. Retrieved 2019/05/22 01:00 UTC (6 hours ago):

CYND 220100Z 28006KT 15SM FEW080 SCT250 13/02 A3008 RMK AC1CI3 AC TR LAST STFD OBS/NEXT 221100 UTC SLP188

TAF (pilot weather forecast)

Forecast is more than 12 hours old.

Closest forecast is Ottawa / Gatineau Airport, 9.6 nm (17.8 km) SW. Retrieved 2019/05/21 18:00 UTC (13 hours ago):

TAF CYND 211738Z 2118/2201 31018G28KT P6SM BKN050 TEMPO 2118/2124 SCT050 FM220000 31008KT P6SM FEW040 RMK NXT FCST WILL BE ISSUED AT 221245Z